createdAt,value
2017-11-16T00:02:22.732Z,149.07
2017-11-16T00:04:48.827Z,139.23
2017-11-16T00:07:14.938Z,152.53
2017-11-16T00:12:13.869Z,133.10
2017-11-16T00:14:39.995Z,157.77
2017-11-16T00:17:06.185Z,142.87
2017-11-16T00:19:32.343Z,154.90
2017-11-16T00:21:58.431Z,153.40
2017-11-16T00:24:24.548Z,149.47
2017-11-16T00:26:51.390Z,138.57
2017-11-16T00:29:18.220Z,135.83
2017-11-16T00:31:44.361Z,146.53
2017-11-16T00:34:10.468Z,157.73
2017-11-16T00:36:36.595Z,159.60
2017-11-16T00:39:02.816Z,170.73
2017-11-16T00:41:28.919Z,180.20
2017-11-16T00:43:55.024Z,152.17
2017-11-16T00:46:21.186Z,151.70
2017-11-16T00:48:47.288Z,159.93
2017-11-16T00:51:13.394Z,144.53
2017-11-16T00:53:39.519Z,146.70
2017-11-16T00:56:05.615Z,141.30
2017-11-16T00:58:31.727Z,141.77
2017-11-16T01:00:57.866Z,153.37
2017-11-16T01:03:23.954Z,166.33
2017-11-16T01:05:50.038Z,182.93
2017-11-16T01:08:16.167Z,198.30
2017-11-16T01:10:42.983Z,187.20
2017-11-16T01:13:09.090Z,200.10
2017-11-16T01:15:35.215Z,190.50
2017-11-16T01:18:01.306Z,210.50
2017-11-16T01:20:27.399Z,202.70
2017-11-16T01:22:53.529Z,240.73
2017-11-16T01:25:19.654Z,231.97
2017-11-16T01:27:45.731Z,207.50
2017-11-16T01:30:11.881Z,209.50
2017-11-16T01:32:38.002Z,203.17
2017-11-16T01:35:04.121Z,199.40
2017-11-16T01:37:30.265Z,180.23
2017-11-16T01:39:56.437Z,181.87
2017-11-16T01:42:22.562Z,164.27
2017-11-16T01:44:48.726Z,159.47
2017-11-16T01:47:14.823Z,145.03
2017-11-16T01:49:40.942Z,151.27
2017-11-16T01:52:07.112Z,142.27
2017-11-16T01:54:33.212Z,143.93
2017-11-16T01:56:59.291Z,136.00
2017-11-16T01:59:25.444Z,121.50
2017-11-16T02:01:51.646Z,121.33
2017-11-16T02:04:17.779Z,134.77
2017-11-16T02:06:43.974Z,125.53
2017-11-16T02:09:10.818Z,110.93
2017-11-16T02:11:36.951Z,116.77
2017-11-16T02:14:03.078Z,112.90
2017-11-16T02:16:29.180Z,106.57
2017-11-16T02:18:55.307Z,114.47
2017-11-16T02:21:21.436Z,110.07
2017-11-16T02:23:48.323Z,116.10
2017-11-16T02:26:14.440Z,100.53
2017-11-16T02:28:40.573Z,110.50
2017-11-16T02:31:07.402Z,120.53
2017-11-16T02:33:33.527Z,123.10
2017-11-16T02:35:59.648Z,130.83
2017-11-16T02:38:25.763Z,118.60
2017-11-16T02:40:51.935Z,127.63
2017-11-16T02:43:18.066Z,128.60
2017-11-16T02:45:44.209Z,127.10
2017-11-16T02:48:10.301Z,142.17
2017-11-16T02:50:36.424Z,149.33
2017-11-16T02:53:03.272Z,179.13
2017-11-16T02:55:30.103Z,149.80
2017-11-16T02:57:56.231Z,140.23
2017-11-16T03:00:22.329Z,169.93
2017-11-16T03:02:48.450Z,154.83
2017-11-16T03:05:15.314Z,161.70
2017-11-16T03:07:41.431Z,151.53
2017-11-16T03:10:07.527Z,182.53
2017-11-16T03:12:33.651Z,167.03
2017-11-16T03:14:59.776Z,157.47
2017-11-16T03:17:25.881Z,136.70
2017-11-16T03:19:52.762Z,155.50
2017-11-16T03:22:18.881Z,147.70
2017-11-16T03:24:44.980Z,176.20
2017-11-16T03:27:11.115Z,182.30
2017-11-16T03:29:37.219Z,191.20
2017-11-16T03:32:03.326Z,197.23
2017-11-16T03:34:29.456Z,228.57
2017-11-16T03:36:55.577Z,205.33
2017-11-16T03:39:21.697Z,243.50
2017-11-16T03:41:47.855Z,193.23
2017-11-16T03:44:13.972Z,216.93
2017-11-16T03:46:40.088Z,223.23
2017-11-16T03:49:06.250Z,216.93
2017-11-16T03:51:32.359Z,242.13
2017-11-16T03:53:58.484Z,225.00
2017-11-16T03:56:25.363Z,225.87
2017-11-16T03:58:51.475Z,223.33
2017-11-16T04:01:18.324Z,211.60
2017-11-16T04:03:45.273Z,209.70
2017-11-16T04:06:11.395Z,215.30
2017-11-16T04:08:37.488Z,237.90
2017-11-16T04:11:03.638Z,201.70
2017-11-16T04:13:29.747Z,194.07
2017-11-16T04:15:56.586Z,250.17
2017-11-16T04:18:23.463Z,239.37
2017-11-16T04:20:49.662Z,285.93
2017-11-16T04:23:15.776Z,257.30
2017-11-16T04:25:41.919Z,248.03
2017-11-16T04:28:08.054Z,201.60
2017-11-16T04:30:34.151Z,154.93
2017-11-16T04:33:00.290Z,149.13
2017-11-16T04:35:26.399Z,142.70
2017-11-16T04:37:53.256Z,149.93
2017-11-16T04:40:19.387Z,129.97
2017-11-16T04:42:45.520Z,133.67
2017-11-16T04:45:11.663Z,153.80
2017-11-16T04:47:37.811Z,140.20
2017-11-16T04:50:04.665Z,120.30
2017-11-16T04:52:30.794Z,147.07
2017-11-16T04:54:56.909Z,167.50
2017-11-16T04:57:23.008Z,216.10
2017-11-16T04:59:49.108Z,203.17
2017-11-16T05:02:15.253Z,253.70
2017-11-16T05:04:42.176Z,317.73
2017-11-16T05:07:08.274Z,298.10
2017-11-16T05:09:34.425Z,242.30
2017-11-16T05:12:00.598Z,217.50
2017-11-16T05:14:26.749Z,344.77
2017-11-16T05:16:52.874Z,270.80
2017-11-16T05:19:18.995Z,268.33
2017-11-16T05:21:45.133Z,199.93
2017-11-16T05:24:11.285Z,207.40
2017-11-16T05:26:37.398Z,202.63
2017-11-16T05:29:03.499Z,192.17
2017-11-16T05:31:30.399Z,213.03
2017-11-16T05:33:56.495Z,188.57
2017-11-16T05:36:23.347Z,259.10
2017-11-16T05:38:50.227Z,249.80
2017-11-16T05:41:16.350Z,249.10
2017-11-16T05:43:43.199Z,259.57
2017-11-16T05:46:10.055Z,234.00
2017-11-16T05:48:36.205Z,215.33
2017-11-16T05:51:03.120Z,186.90
2017-11-16T05:53:29.254Z,183.07
2017-11-16T05:55:55.366Z,259.93
2017-11-16T05:58:21.516Z,185.67
2017-11-16T06:00:47.628Z,176.97
2017-11-16T06:03:13.767Z,140.43
2017-11-16T06:05:39.891Z,128.43
2017-11-16T06:08:06.022Z,130.00
2017-11-16T06:10:32.158Z,151.13
2017-11-16T06:12:59.017Z,142.20
2017-11-16T06:15:25.859Z,139.30
2017-11-16T06:17:51.968Z,144.37
2017-11-16T06:20:18.094Z,132.17
2017-11-16T06:22:44.190Z,162.57
2017-11-16T06:25:10.294Z,134.77
2017-11-16T06:27:36.421Z,129.53
2017-11-16T06:30:02.535Z,143.20
2017-11-16T06:32:28.622Z,108.37
2017-11-16T06:34:54.754Z,123.70
2017-11-16T06:37:21.627Z,109.60
2017-11-16T06:39:48.522Z,101.13
2017-11-16T06:42:14.694Z,98.80
2017-11-16T06:44:40.791Z,99.00
2017-11-16T06:47:06.925Z,99.13
2017-11-16T06:49:33.838Z,95.07
2017-11-16T06:51:59.942Z,116.30
2017-11-16T06:54:26.076Z,122.57
2017-11-16T06:56:52.788Z,117.70
2017-11-16T06:59:19.623Z,110.53
2017-11-16T07:01:45.720Z,113.80
2017-11-16T07:04:11.855Z,121.50
2017-11-16T07:06:37.947Z,156.67
2017-11-16T07:09:04.065Z,135.37
2017-11-16T07:11:30.181Z,125.43
2017-11-16T07:13:56.274Z,124.87
2017-11-16T07:16:22.364Z,161.60
2017-11-16T07:18:48.499Z,122.70
2017-11-16T07:21:14.591Z,136.23
2017-11-16T07:23:40.687Z,173.33
2017-11-16T07:26:06.819Z,161.00
2017-11-16T07:28:32.922Z,196.77
2017-11-16T07:30:59.037Z,175.33
2017-11-16T07:33:25.186Z,160.27
2017-11-16T07:35:51.279Z,210.03
2017-11-16T07:38:17.472Z,181.43
2017-11-16T07:40:49.856Z,199.93
2017-11-16T07:43:15.959Z,159.10
2017-11-16T07:45:42.800Z,163.00
2017-11-16T07:48:08.919Z,198.50
2017-11-16T07:50:35.023Z,191.33
2017-11-16T07:53:01.155Z,169.87
2017-11-16T07:55:27.283Z,166.17
2017-11-16T07:57:53.387Z,233.57
2017-11-16T08:00:19.491Z,161.73
2017-11-16T08:02:45.613Z,203.33
2017-11-16T08:05:11.724Z,170.57
2017-11-16T08:07:38.596Z,179.87
2017-11-16T08:10:04.727Z,166.27
2017-11-16T08:12:30.821Z,165.30
2017-11-16T08:14:56.943Z,171.53
2017-11-16T08:17:23.063Z,167.97
2017-11-16T08:19:49.138Z,155.80
2017-11-16T08:22:15.359Z,178.10
2017-11-16T08:24:41.502Z,211.80
2017-11-16T08:27:07.637Z,189.50
2017-11-16T08:29:33.730Z,241.13
2017-11-16T08:31:59.855Z,219.73
2017-11-16T08:34:26.743Z,220.80
2017-11-16T08:36:52.862Z,297.33
2017-11-16T08:39:19.706Z,233.33
2017-11-16T08:41:46.584Z,233.23
2017-11-16T08:44:12.729Z,253.07
2017-11-16T08:46:56.625Z,252.23
2017-11-16T08:49:22.714Z,257.20
2017-11-16T08:51:48.900Z,286.73
2017-11-16T08:54:16.223Z,283.37
2017-11-16T08:56:42.356Z,285.50
2017-11-16T08:59:08.499Z,273.00
2017-11-16T09:01:34.619Z,268.17
2017-11-16T09:04:00.719Z,295.73
2017-11-16T09:06:26.868Z,275.90
2017-11-16T09:08:53.744Z,303.37
2017-11-16T09:11:19.852Z,252.17
2017-11-16T09:13:46.069Z,249.03
2017-11-16T09:16:12.250Z,256.07
2017-11-16T09:18:38.353Z,233.30
2017-11-16T09:21:04.527Z,226.10
2017-11-16T09:23:31.404Z,214.83
2017-11-16T09:25:57.532Z,203.13
2017-11-16T09:28:24.368Z,183.30
2017-11-16T09:30:50.480Z,178.80
2017-11-16T09:33:16.547Z,177.17
2017-11-16T09:35:57.706Z,158.07
2017-11-16T09:38:23.812Z,168.53
2017-11-16T09:40:49.905Z,153.20
2017-11-16T09:43:16.044Z,156.57
2017-11-16T09:45:42.174Z,153.10
2017-11-16T09:48:08.608Z,138.17
2017-11-16T09:50:34.730Z,143.17
2017-11-16T09:53:08.090Z,140.20
2017-11-16T09:55:35.000Z,149.70
2017-11-16T09:58:01.120Z,134.10
2017-11-16T10:00:27.243Z,124.03
2017-11-16T10:02:54.107Z,146.53
2017-11-16T10:05:20.193Z,140.10
2017-11-16T10:07:46.312Z,134.70
2017-11-16T10:10:12.476Z,141.43
2017-11-16T10:12:38.596Z,137.87
2017-11-16T10:15:04.698Z,157.13
2017-11-16T10:17:30.834Z,145.50
2017-11-16T10:19:57.021Z,143.10
2017-11-16T10:22:23.146Z,147.17
2017-11-16T10:24:49.302Z,144.80
2017-11-16T10:27:15.476Z,153.00
2017-11-16T10:29:41.580Z,149.20
2017-11-16T10:32:08.807Z,159.07
2017-11-16T10:34:34.958Z,174.70
2017-11-16T10:37:01.087Z,160.70
2017-11-16T10:39:27.474Z,156.60
2017-11-16T10:41:53.645Z,155.03
2017-11-16T10:44:19.812Z,131.27
2017-11-16T10:46:45.993Z,140.77
2017-11-16T10:49:12.148Z,148.63
2017-11-16T10:51:39.003Z,111.50
2017-11-16T10:54:05.136Z,135.03
2017-11-16T10:56:31.266Z,123.87
2017-11-16T10:58:58.114Z,139.50
2017-11-16T11:01:24.338Z,134.53
2017-11-16T11:03:50.448Z,148.40
2017-11-16T11:06:16.570Z,137.30
2017-11-16T11:08:42.711Z,141.13
2017-11-16T11:11:08.904Z,143.37
2017-11-16T11:13:34.998Z,132.70
2017-11-16T11:16:01.338Z,133.20
2017-11-16T11:18:27.490Z,126.47
2017-11-16T11:20:53.586Z,111.97
2017-11-16T11:23:20.494Z,120.80
2017-11-16T11:25:46.613Z,119.63
2017-11-16T11:28:12.728Z,125.23
2017-11-16T11:30:38.923Z,108.00
2017-11-16T11:33:05.802Z,117.87
2017-11-16T11:35:31.993Z,101.83
2017-11-16T11:37:58.114Z,103.27
2017-11-16T11:40:24.249Z,93.20
2017-11-16T11:42:50.371Z,90.13
2017-11-16T11:45:16.534Z,87.40
2017-11-16T11:47:42.689Z,90.00
2017-11-16T11:50:09.011Z,93.23
2017-11-16T11:52:35.143Z,93.37
2017-11-16T11:55:01.226Z,78.57
2017-11-16T11:57:27.328Z,70.40
2017-11-16T11:59:53.438Z,70.70
2017-11-16T12:02:20.288Z,71.33
2017-11-16T12:04:47.135Z,59.70
2017-11-16T12:07:14.033Z,67.07
2017-11-16T12:09:40.181Z,59.50
2017-11-16T12:12:06.290Z,62.87
2017-11-16T12:14:32.450Z,67.60
2017-11-16T12:16:58.549Z,59.40
2017-11-16T12:19:25.371Z,60.13
2017-11-16T12:21:51.479Z,57.27
2017-11-16T12:24:17.570Z,66.10
2017-11-16T12:26:43.694Z,53.33
2017-11-16T12:29:10.125Z,60.90
2017-11-16T12:31:36.271Z,52.90
2017-11-16T12:34:02.423Z,58.60
2017-11-16T12:36:28.539Z,51.30
2017-11-16T12:38:54.636Z,48.77
2017-11-16T12:41:20.739Z,50.93
2017-11-16T12:43:46.846Z,52.40
2017-11-16T12:46:13.048Z,54.20
2017-11-16T12:48:39.175Z,47.70
2017-11-16T12:51:05.291Z,41.80
2017-11-16T12:53:32.138Z,57.17
2017-11-16T12:55:58.244Z,45.90
2017-11-16T12:58:24.363Z,47.83
2017-11-16T13:00:50.459Z,52.03
2017-11-16T13:03:16.592Z,46.43
2017-11-16T13:05:42.731Z,48.93
2017-11-16T13:08:08.896Z,43.93
2017-11-16T13:10:34.995Z,51.87
2017-11-16T13:13:01.112Z,60.10
2017-11-16T13:15:27.283Z,52.87
2017-11-16T13:17:53.378Z,50.97
2017-11-16T13:20:19.518Z,53.73
2017-11-16T13:22:45.614Z,51.53
2017-11-16T13:25:12.513Z,44.73
2017-11-16T13:27:38.671Z,50.40
2017-11-16T13:30:04.773Z,58.93
2017-11-16T13:32:30.890Z,61.37
2017-11-16T13:34:57.752Z,56.30
2017-11-16T13:37:24.595Z,53.03
2017-11-16T13:39:51.423Z,50.67
2017-11-16T13:42:17.590Z,45.40
2017-11-16T13:44:44.439Z,53.13
2017-11-16T13:47:10.808Z,50.40
2017-11-16T13:49:36.968Z,51.07
2017-11-16T13:52:03.119Z,55.97
2017-11-16T13:54:29.227Z,53.43
2017-11-16T13:56:55.368Z,49.43
2017-11-16T13:59:21.538Z,50.73
2017-11-16T14:01:47.635Z,49.43
2017-11-16T14:04:13.847Z,52.47
2017-11-16T14:06:40.764Z,46.27
2017-11-16T14:09:06.919Z,47.33
2017-11-16T14:11:33.035Z,46.27
2017-11-16T14:13:59.124Z,50.00
2017-11-16T14:16:25.208Z,48.53
2017-11-16T14:18:51.330Z,46.07
2017-11-16T14:21:17.433Z,46.20
2017-11-16T14:23:43.612Z,41.20
2017-11-16T14:26:09.866Z,46.00
2017-11-16T14:28:36.378Z,38.97
2017-11-16T14:31:03.544Z,43.47
2017-11-16T14:33:29.806Z,43.90
2017-11-16T14:35:55.959Z,42.07
2017-11-16T14:38:22.094Z,41.17
2017-11-16T14:40:49.297Z,43.23
2017-11-16T14:43:15.415Z,38.07
2017-11-16T14:45:41.580Z,41.73
2017-11-16T14:48:07.750Z,37.10
2017-11-16T14:50:33.862Z,38.73
2017-11-16T14:53:01.709Z,39.87
2017-11-16T14:55:28.273Z,45.47
2017-11-16T14:57:54.374Z,42.83
2017-11-16T15:00:20.476Z,42.80
2017-11-16T15:02:47.318Z,41.80
2017-11-16T15:05:14.145Z,44.37
2017-11-16T15:07:40.290Z,46.57
2017-11-16T15:10:07.228Z,44.80
2017-11-16T15:12:33.362Z,40.00
2017-11-16T15:14:59.466Z,45.90
2017-11-16T15:17:25.588Z,43.57
2017-11-16T15:19:52.475Z,43.47
2017-11-16T15:22:18.576Z,45.20
2017-11-16T15:24:45.462Z,44.77
2017-11-16T15:27:11.620Z,42.37
2017-11-16T15:29:37.724Z,45.50
2017-11-16T15:32:04.596Z,42.07
2017-11-16T15:34:30.827Z,44.73
2017-11-16T15:36:56.943Z,43.27
2017-11-16T15:39:23.824Z,50.37
2017-11-16T15:41:49.935Z,51.63
2017-11-16T15:44:16.778Z,49.90
2017-11-16T15:46:42.949Z,54.67
2017-11-16T15:49:09.901Z,49.77
2017-11-16T15:51:36.396Z,48.23
2017-11-16T15:54:02.542Z,58.37
2017-11-16T15:56:28.688Z,47.17
2017-11-16T15:58:54.810Z,53.00
2017-11-16T16:01:20.922Z,45.23
2017-11-16T16:03:47.015Z,43.67
2017-11-16T16:06:13.119Z,49.03
2017-11-16T16:08:39.250Z,51.20
2017-11-16T16:11:05.377Z,51.73
2017-11-16T16:13:31.559Z,50.47
2017-11-16T16:15:57.691Z,45.50
2017-11-16T16:18:23.794Z,46.83
2017-11-16T16:20:49.890Z,53.20
2017-11-16T16:23:16.003Z,40.30
2017-11-16T16:25:42.092Z,44.90
2017-11-16T16:28:08.243Z,47.13
2017-11-16T16:30:34.357Z,42.33
2017-11-16T16:33:00.470Z,39.50
2017-11-16T16:35:26.591Z,45.20
2017-11-16T16:37:52.707Z,38.23
2017-11-16T16:40:18.814Z,35.50
2017-11-16T16:42:44.958Z,38.70
2017-11-16T16:45:11.133Z,35.03
2017-11-16T16:47:37.304Z,35.33
2017-11-16T16:50:04.206Z,37.97
2017-11-16T16:52:30.332Z,37.97
2017-11-16T16:54:56.472Z,30.00
2017-11-16T16:57:22.594Z,35.83
2017-11-16T16:59:49.459Z,36.40
2017-11-16T17:02:15.575Z,31.03
2017-11-16T17:04:41.681Z,31.20
2017-11-16T17:07:07.848Z,32.30
2017-11-16T17:09:34.698Z,35.53
2017-11-16T17:12:00.791Z,37.87
2017-11-16T17:14:28.895Z,36.17
2017-11-16T17:16:55.015Z,35.37
2017-11-16T17:19:21.146Z,38.00
2017-11-16T17:21:47.348Z,35.73
2017-11-16T17:24:14.303Z,40.87
2017-11-16T17:26:41.245Z,39.83
2017-11-16T17:29:08.500Z,40.83
2017-11-16T17:31:34.917Z,37.47
2017-11-16T17:34:01.028Z,40.27
2017-11-16T17:36:27.142Z,40.80
2017-11-16T17:38:53.246Z,39.53
2017-11-16T17:41:19.367Z,42.33
2017-11-16T17:43:45.495Z,41.27
2017-11-16T17:46:11.671Z,43.17
2017-11-16T17:48:38.004Z,37.83
2017-11-16T17:51:04.163Z,39.77
2017-11-16T17:53:30.267Z,40.53
2017-11-16T17:55:56.409Z,48.27
2017-11-16T17:58:22.550Z,41.63
2017-11-16T18:00:48.715Z,44.87
2017-11-16T18:03:14.895Z,38.87
2017-11-16T18:05:41.087Z,51.57
2017-11-16T18:08:07.255Z,48.13
2017-11-16T18:10:34.093Z,51.17
2017-11-16T18:13:00.437Z,52.43
2017-11-16T18:15:26.619Z,50.20
2017-11-16T18:17:52.872Z,50.83
2017-11-16T18:20:19.056Z,46.67
2017-11-16T18:22:45.270Z,53.10
2017-11-16T18:25:11.391Z,54.63
2017-11-16T18:27:37.622Z,51.60
2017-11-16T18:30:03.730Z,50.50
2017-11-16T18:32:30.575Z,51.33
2017-11-16T18:34:56.714Z,46.13
2017-11-16T18:37:23.556Z,48.33
2017-11-16T18:39:49.727Z,45.23
2017-11-16T18:42:15.882Z,50.40
2017-11-16T18:44:42.036Z,47.50
2017-11-16T18:47:08.245Z,48.40
2017-11-16T18:49:34.367Z,49.63
2017-11-16T18:52:01.263Z,44.50
2017-11-16T18:54:27.363Z,51.70
2017-11-16T18:56:54.246Z,46.00
2017-11-16T18:59:20.346Z,48.30
2017-11-16T19:01:46.471Z,48.40
2017-11-16T19:04:12.794Z,52.03
2017-11-16T19:06:38.924Z,55.73
2017-11-16T19:09:05.036Z,52.10
2017-11-16T19:11:31.221Z,54.63
2017-11-16T19:13:58.040Z,51.20
2017-11-16T19:16:25.227Z,53.23
2017-11-16T19:18:52.189Z,58.73
2017-11-16T19:21:18.423Z,55.67
2017-11-16T19:23:44.610Z,55.70
2017-11-16T19:26:11.537Z,52.47
2017-11-16T19:28:37.770Z,55.90
2017-11-16T19:31:03.914Z,57.93
2017-11-16T19:33:30.027Z,56.93
2017-11-16T19:35:56.227Z,63.70
2017-11-16T19:38:23.070Z,62.70
2017-11-16T19:40:49.236Z,62.37
2017-11-16T19:43:15.353Z,71.93
2017-11-16T19:45:41.609Z,73.07
2017-11-16T19:48:08.521Z,85.83
2017-11-16T19:50:35.110Z,72.03
2017-11-16T19:53:01.287Z,76.07
2017-11-16T19:55:27.369Z,73.80
2017-11-16T19:57:53.595Z,65.60
2017-11-16T20:00:19.770Z,75.73
2017-11-16T20:02:45.880Z,67.80
2017-11-16T20:05:12.131Z,67.63
2017-11-16T20:07:38.249Z,68.70
2017-11-16T20:10:04.478Z,69.43
2017-11-16T20:12:30.659Z,75.27
2017-11-16T20:15:27.427Z,70.33
2017-11-16T20:17:54.759Z,70.03
2017-11-16T20:20:20.938Z,75.50
2017-11-16T20:22:47.105Z,69.70
2017-11-16T20:25:13.240Z,75.53
2017-11-16T20:27:39.347Z,85.17
2017-11-16T20:30:06.164Z,74.43
2017-11-16T20:32:32.399Z,73.47
2017-11-16T20:34:58.535Z,72.17
2017-11-16T20:37:25.565Z,80.67
2017-11-16T20:39:57.980Z,70.83
2017-11-16T20:42:27.136Z,70.43
2017-11-16T20:45:00.263Z,70.53
2017-11-16T20:47:32.493Z,76.60
2017-11-16T20:49:58.632Z,73.93
2017-11-16T20:55:21.611Z,76.13
2017-11-16T20:57:47.763Z,73.70
2017-11-16T21:00:14.036Z,78.10
2017-11-16T21:02:40.890Z,82.33
2017-11-16T21:05:07.030Z,79.40
2017-11-16T21:07:33.152Z,78.93
2017-11-16T21:09:59.259Z,71.47
2017-11-16T21:12:25.395Z,71.80
2017-11-16T21:14:51.508Z,69.90
2017-11-16T21:17:17.625Z,71.00
2017-11-16T21:19:43.801Z,87.17
2017-11-16T21:22:09.983Z,74.50
2017-11-16T21:24:36.835Z,79.30
2017-11-16T21:27:03.703Z,73.53
2017-11-16T21:29:30.551Z,71.73
2017-11-16T21:31:57.383Z,71.47
2017-11-16T21:34:23.789Z,71.80
2017-11-16T21:36:49.945Z,75.57
2017-11-16T21:39:16.079Z,79.20
2017-11-16T21:41:42.354Z,81.47
2017-11-16T21:44:08.467Z,72.53
2017-11-16T21:46:34.703Z,78.53
2017-11-16T21:49:00.996Z,77.70
2017-11-16T21:51:27.835Z,75.17
2017-11-16T21:53:54.090Z,69.20
2017-11-16T21:56:21.008Z,65.00
2017-11-16T21:58:47.097Z,62.67
2017-11-16T22:01:14.000Z,67.23
2017-11-16T22:03:40.168Z,68.93
2017-11-16T22:06:06.276Z,65.37
2017-11-16T22:08:32.382Z,79.23
2017-11-16T22:10:58.531Z,67.83
2017-11-16T22:13:24.615Z,79.43
2017-11-16T22:15:50.707Z,74.67
2017-11-16T22:18:16.855Z,69.93
2017-11-16T22:20:42.956Z,75.23
2017-11-16T22:23:09.830Z,71.00
2017-11-16T22:25:35.937Z,73.00
2017-11-16T22:28:05.642Z,81.90
2017-11-16T22:30:31.783Z,69.50
2017-11-16T22:32:57.915Z,69.90
2017-11-16T22:35:24.010Z,76.47
2017-11-16T22:37:50.240Z,75.30
2017-11-16T22:40:16.372Z,82.80
2017-11-16T22:42:42.539Z,80.53
2017-11-16T22:45:09.749Z,77.40
2017-11-16T22:47:36.642Z,80.30
2017-11-16T22:50:07.707Z,86.60
